Time;durP1;ratioP1;P1;durP2;ratioP2;P2;SDS_P1;SDS_P2;PMS_P1;PMS_P2;Temp;Humidity;BMP_temperature;BMP_pressure;BME280_temperature;BME280_humidity;BME280_pressure;Samples;Min_cycle;Max_cycle;Signal;HPM_P1;HPM_P2
2022/08/11 00:01:48;;;;;;;;;;;;;;;-145.18;100.00;47181.97;5012603;28;19913;-70
2022/08/11 00:04:14;;;;;;;;;;;;;;;-145.18;100.00;47191.75;5012741;28;19922;-70
2022/08/11 00:06:40;;;;;;;;;;;;;;;-145.18;100.00;47183.94;5012156;28;20033;-70
2022/08/11 00:09:09;;;;;;;;;;;;;;;-145.18;100.00;47195.66;5012909;28;20037;-70
2022/08/11 00:11:53;;;;;;;;;;;;;;;-145.18;100.00;47193.69;5012080;28;19921;-70
2022/08/11 00:14:24;;;;;;;;;;;;;;;-145.18;100.00;47195.66;5012669;28;19929;-70
2022/08/11 00:16:57;;;;;;;;;;;;;;;-145.18;100.00;47211.28;5027156;28;19921;-70
2022/08/11 00:19:27;;;;;;;;;;;;;;;-145.18;100.00;47205.41;5012771;28;20290;-70
2022/08/11 00:21:53;;;;;;;;;;;;;;;-145.18;100.00;47221.03;5012280;28;19963;-70
2022/08/11 00:24:20;;;;;;;;;;;;;;;-145.18;100.00;47205.41;5012609;28;20337;-70
2022/08/11 00:26:49;;;;;;;;;;;;;;;-145.18;100.00;47223.00;5011779;28;19979;-70
2022/08/11 00:29:15;;;;;;;;;;;;;;;-145.18;100.00;47193.69;5012679;28;20297;-71
2022/08/11 00:31:51;;;;;;;;;;;;;;;-145.18;100.00;47197.59;5011714;28;19921;-70
2022/08/11 00:34:19;;;;;;;;;;;;;;;-145.18;100.00;47191.75;5012590;28;19918;-70
2022/08/11 00:36:52;;;;;;;;;;;;;;;-145.18;100.00;47178.06;5011627;28;19955;-70
2022/08/11 00:39:22;;;;;;;;;;;;;;;-145.18;100.00;47140.94;5012171;28;19987;-70
2022/08/11 00:42:06;;;;;;;;;;;;;;;-145.18;100.00;47166.34;5011777;28;19922;-70
2022/08/11 00:44:37;;;;;;;;;;;;;;;-145.18;100.00;47154.63;5011899;28;20441;-70
2022/08/11 00:47:08;;;;;;;;;;;;;;;-145.18;100.00;47150.72;5011701;28;19929;-70
2022/08/11 00:49:41;;;;;;;;;;;;;;;-145.18;100.00;47090.16;5011666;28;19972;-70
2022/08/11 00:52:11;;;;;;;;;;;;;;;-145.18;100.00;47043.28;5011893;28;19921;-70
2022/08/11 00:54:55;;;;;;;;;;;;;;;-145.18;100.00;46922.16;5011752;28;20473;-70
2022/08/11 00:57:20;;;;;;;;;;;;;;;-145.18;100.00;46779.56;5011534;28;19964;-70
2022/08/11 01:00:07;;;;;;;;;;;;;;;-145.18;100.00;46842.06;5010435;28;19964;-70
2022/08/11 01:02:32;;;;;;;;;;;;;;;-145.18;100.00;46832.28;5011136;28;19918;-70
2022/08/11 01:05:01;;;;;;;;;;;;;;;-145.18;100.00;46746.34;5011759;28;20382;-70
2022/08/11 01:07:29;;;;;;;;;;;;;;;-145.18;100.00;46791.28;5011254;28;19918;-70
2022/08/11 01:09:57;;;;;;;;;;;;;;;-145.18;100.00;46822.53;5011764;28;19979;-69
2022/08/11 01:12:30;;;;;;;;;;;;;;;-145.18;100.00;46730.72;5011253;28;19973;-70
2022/08/11 01:15:01;;;;;;;;;;;;;;;-145.18;100.00;46656.50;5011887;28;19928;-70
2022/08/11 01:17:35;;;;;;;;;;;;;;;-145.18;100.00;46646.72;5011082;28;19925;-70
2022/08/11 01:20:19;;;;;;;;;;;;;;;-145.18;100.00;46613.50;5011491;28;19928;-69
2022/08/11 01:22:44;;;;;;;;;;;;;;;-145.18;100.00;46627.19;5010471;28;19992;-70
2022/08/11 01:25:43;;;;;;;;;;;;;;;-145.18;100.00;46640.88;5011567;28;20267;-70
2022/08/11 01:28:11;;;;;;;;;;;;;;;-145.18;100.00;46650.63;4999208;28;20382;-70
2022/08/11 01:30:39;;;;;;;;;;;;;;;-145.18;100.00;46636.94;5011117;28;19917;-69
2022/08/11 01:33:40;;;;;;;;;;;;;;;-145.18;100.00;46607.66;5011046;28;19952;-70
2022/08/11 01:36:17;;;;;;;;;;;;;;;-145.18;100.00;46613.50;5011486;28;19918;-69
2022/08/11 01:38:42;;;;;;;;;;;;;;;-145.18;100.00;46615.47;5010667;28;19928;-70
2022/08/11 01:44:38;;;;;;;;;;;;;;;-145.18;100.00;46574.44;4980317;28;19925;-69
2022/08/11 01:50:35;;;;;;;;;;;;;;;-145.18;100.00;46607.66;5011510;28;20008;-70
2022/08/11 01:53:03;;;;;;;;;;;;;;;-145.18;100.00;46590.06;4991486;28;20021;-70
2022/08/11 01:55:44;;;;;;;;;;;;;;;-145.18;100.00;46590.06;5011115;28;20016;-70
2022/08/11 01:58:18;;;;;;;;;;;;;;;-145.18;100.00;46568.59;5011026;28;19922;-70
2022/08/11 02:03:39;;;;;;;;;;;;;;;-145.18;100.00;46578.34;4388967;22;19933;-68
2022/08/11 02:09:15;;;;;;;;;;;;;;;-145.18;100.00;46556.88;5070680;28;19935;-69
2022/08/11 02:11:44;;;;;;;;;;;;;;;-145.18;100.00;46566.63;5070597;28;20354;-69
2022/08/11 02:14:22;;;;;;;;;;;;;;;-145.18;100.00;46564.69;5070556;28;20343;-68
2022/08/11 02:16:47;;;;;;;;;;;;;;;-145.18;100.00;46545.16;5069926;28;19928;-69
2022/08/11 02:25:17;;;;;;;;;;;;;;;-145.18;100.00;46545.16;5070459;28;19942;-69
2022/08/11 02:27:46;;;;;;;;;;;;;;;-145.18;100.00;46539.28;5070176;28;19924;-68
2022/08/11 02:30:16;;;;;;;;;;;;;;;-145.18;100.00;46539.28;5070756;28;20277;-69
2022/08/11 02:35:35;;;;;;;;;;;;;;;-145.18;100.00;46547.09;5073595;28;19961;-69
2022/08/11 02:38:12;;;;;;;;;;;;;;;-145.18;100.00;46539.28;5073736;28;19924;-69
2022/08/11 02:40:56;;;;;;;;;;;;;;;-145.18;100.00;46533.44;5074353;28;20487;-69
2022/08/11 02:43:28;;;;;;;;;;;;;;;-145.18;100.00;46531.47;5073851;28;19966;-68
2022/08/11 02:46:12;;;;;;;;;;;;;;;-145.18;100.00;46527.56;5073996;28;19942;-69
2022/08/11 02:51:39;;;;;;;;;;;;;;;-145.18;100.00;46537.34;5074517;28;19985;-69
2022/08/11 02:54:13;;;;;;;;;;;;;;;-145.18;100.00;46527.56;5073521;28;19916;-69
2022/08/11 02:56:50;;;;;;;;;;;;;;;-145.18;100.00;46531.47;5073867;28;19927;-68
2022/08/11 03:02:23;;;;;;;;;;;;;;;-145.18;100.00;46517.81;5072922;28;19936;-69
2022/08/11 03:04:57;;;;;;;;;;;;;;;-145.18;100.00;46533.44;5065257;28;19920;-68
2022/08/11 03:07:42;;;;;;;;;;;;;;;-145.18;100.00;46527.56;5073295;28;20407;-71
2022/08/11 03:10:12;;;;;;;;;;;;;;;-145.18;100.00;46529.53;5073531;28;20015;-69
2022/08/11 03:19:07;;;;;;;;;;;;;;;-145.18;100.00;46531.47;5073089;28;19924;-71
2022/08/11 03:21:39;;;;;;;;;;;;;;;-145.18;100.00;46537.34;5073284;28;19912;-71
2022/08/11 03:24:13;;;;;;;;;;;;;;;-145.18;100.00;46529.53;5073037;28;19920;-71
2022/08/11 03:26:53;;;;;;;;;;;;;;;-145.18;100.00;46525.63;5073426;28;19921;-71
2022/08/11 03:29:30;;;;;;;;;;;;;;;-145.18;100.00;46537.34;5073122;28;20477;-71
2022/08/11 03:32:01;;;;;;;;;;;;;;;-145.18;100.00;46527.56;5072971;28;19955;-71
2022/08/11 03:34:28;;;;;;;;;;;;;;;-145.18;100.00;46531.47;5073369;28;19966;-71
2022/08/11 03:37:10;;;;;;;;;;;;;;;-145.18;100.00;46531.47;5072666;28;19916;-69
2022/08/11 03:39:54;;;;;;;;;;;;;;;-145.18;100.00;46531.47;5073224;28;19955;-69
2022/08/11 03:42:25;;;;;;;;;;;;;;;-145.18;100.00;46537.34;5072714;28;19920;-69
2022/08/11 03:44:58;;;;;;;;;;;;;;;-145.18;100.00;46535.38;5072559;28;19928;-69
2022/08/11 03:47:33;;;;;;;;;;;;;;;-145.18;100.00;46533.44;5072633;28;19951;-69
2022/08/11 03:49:58;;;;;;;;;;;;;;;-145.18;100.00;46535.38;5072761;28;19956;-71
2022/08/11 03:52:42;;;;;;;;;;;;;;;-145.18;100.00;46529.53;5072624;28;20025;-69
2022/08/11 03:55:07;;;;;;;;;;;;;;;-145.18;100.00;46531.47;5072618;28;20440;-71
2022/08/11 03:57:38;;;;;;;;;;;;;;;-145.18;100.00;46531.47;5072501;28;20015;-71
2022/08/11 04:00:10;;;;;;;;;;;;;;;-145.18;100.00;46531.47;5072711;28;19932;-71
2022/08/11 04:02:35;;;;;;;;;;;;;;;-145.18;100.00;46527.56;5072012;28;19920;-71
2022/08/11 04:05:19;;;;;;;;;;;;;;;-145.18;100.00;46531.47;5072674;28;19926;-71
2022/08/11 04:08:07;;;;;;;;;;;;;;;-145.18;100.00;46525.63;5070927;28;20288;-71
2022/08/11 04:10:51;;;;;;;;;;;;;;;-145.18;100.00;46525.63;5072400;28;19986;-71
2022/08/11 04:13:19;;;;;;;;;;;;;;;-145.18;100.00;46527.56;5072257;28;20007;-71
2022/08/11 04:16:01;;;;;;;;;;;;;;;-145.18;100.00;46529.53;5072445;28;19927;-71
2022/08/11 04:18:26;;;;;;;;;;;;;;;-145.18;100.00;46529.53;5071902;28;20269;-71
2022/08/11 04:21:30;;;;;;;;;;;;;;;-145.18;100.00;46531.47;5072268;28;19920;-71
2022/08/11 04:24:02;;;;;;;;;;;;;;;-145.18;100.00;46527.56;5009698;28;19921;-71
2022/08/11 04:26:46;;;;;;;;;;;;;;;-145.18;100.00;46535.38;5010177;28;19921;-71
2022/08/11 04:29:30;;;;;;;;;;;;;;;-145.18;100.00;46531.47;5048780;28;19916;-71
2022/08/11 04:32:14;;;;;;;;;;;;;;;-145.18;100.00;46529.53;5072021;28;19999;-71
2022/08/11 04:34:39;;;;;;;;;;;;;;;-145.18;100.00;46527.56;5072082;28;19916;-71
2022/08/11 04:40:00;;;;;;;;;;;;;;;-145.18;100.00;46535.38;5071968;28;19924;-72
2022/08/11 04:45:47;;;;;;;;;;;;;;;-145.18;100.00;46525.63;5071860;28;19946;-71
2022/08/11 05:02:36;;;;;;;;;;;;;;;-145.18;100.00;46541.25;5070739;28;19950;-72
2022/08/11 05:08:10;;;;;;;;;;;;;;;-145.18;100.00;46543.19;5070881;28;19923;-71
2022/08/11 05:10:44;;;;;;;;;;;;;;;-145.18;100.00;46541.25;5071385;28;19970;-71
2022/08/11 05:35:36;;;;;;;;;;;;;;;-145.18;100.00;46556.88;5071312;28;20383;-71
2022/08/11 05:57:20;;;;;;;;;;;;;;;-145.18;100.00;46521.72;5070720;28;20504;-71
2022/08/11 05:59:46;;;;;;;;;;;;;;;-145.18;100.00;46521.72;5070783;28;19932;-71
2022/08/11 06:02:12;;;;;;;;;;;;;;;-145.18;100.00;46521.72;5069367;28;19921;-71
2022/08/11 06:04:38;;;;;;;;;;;;;;;-145.18;100.00;46519.75;5070423;28;19916;-71
2022/08/11 06:07:08;;;;;;;;;;;;;;;-145.18;100.00;46521.72;5070625;28;20010;-71
2022/08/11 06:09:59;;;;;;;;;;;;;;;-145.18;100.00;46527.56;5073890;28;19923;-71
2022/08/11 06:12:31;;;;;;;;;;;;;;;-145.18;100.00;46523.66;5071287;28;19916;-71
2022/08/11 06:14:57;;;;;;;;;;;;;;;-145.18;100.00;46525.63;5074614;28;20455;-70
2022/08/11 06:17:27;;;;;;;;;;;;;;;-145.18;100.00;46519.75;5074420;28;19916;-71
2022/08/11 06:19:58;;;;;;;;;;;;;;;-145.18;100.00;46525.63;5074517;28;19924;-71
2022/08/11 06:22:24;;;;;;;;;;;;;;;-145.18;100.00;46521.72;5074477;28;19921;-71
2022/08/11 06:24:51;;;;;;;;;;;;;;;-145.18;100.00;46523.66;5074470;28;20007;-71
2022/08/11 06:27:18;;;;;;;;;;;;;;;-145.18;100.00;46533.44;5074530;28;19923;-71
2022/08/11 06:29:49;;;;;;;;;;;;;;;-145.18;100.00;46523.66;5074086;28;20288;-72
2022/08/11 06:32:14;;;;;;;;;;;;;;;-145.18;100.00;46519.75;5074362;28;19940;-71
2022/08/11 06:34:40;;;;;;;;;;;;;;;-145.18;100.00;46527.56;5073779;28;19928;-71
2022/08/11 06:37:05;;;;;;;;;;;;;;;-145.18;100.00;46521.72;5074164;28;19959;-71
2022/08/11 06:39:34;;;;;;;;;;;;;;;-145.18;100.00;46519.75;5069991;28;19916;-72
2022/08/11 06:42:10;;;;;;;;;;;;;;;-145.18;100.00;46521.72;5074056;28;19928;-72
2022/08/11 06:44:36;;;;;;;;;;;;;;;-145.18;100.00;46519.75;5073599;28;20316;-72
2022/08/11 06:47:11;;;;;;;;;;;;;;;-145.18;100.00;46521.72;5074577;28;19917;-72
2022/08/11 06:52:36;;;;;;;;;;;;;;;-145.18;100.00;46527.56;5073926;28;20015;-72
2022/08/11 06:55:10;;;;;;;;;;;;;;;-145.18;100.00;46521.72;5073704;28;19917;-71
2022/08/11 07:00:28;;;;;;;;;;;;;;;-145.18;100.00;46511.94;5074175;28;20020;-72
2022/08/11 07:02:59;;;;;;;;;;;;;;;-145.18;100.00;46510.00;5073302;28;20339;-71
2022/08/11 07:05:27;;;;;;;;;;;;;;;-145.18;100.00;46529.53;5073783;28;19917;-71
2022/08/11 07:16:43;;;;;;;;;;;;;;;-145.18;100.00;46537.34;5073616;28;20015;-72
2022/08/11 07:30:18;;;;;;;;;;;;;;;-145.18;100.00;46525.63;5073546;28;19949;-70
2022/08/11 07:32:48;;;;;;;;;;;;;;;-145.18;100.00;46513.91;5072967;28;20372;-71
2022/08/11 07:35:19;;;;;;;;;;;;;;;-145.18;100.00;46519.75;5073022;28;19917;-71
2022/08/11 07:37:52;;;;;;;;;;;;;;;-145.18;100.00;46537.34;5073020;28;19942;-71
2022/08/11 07:40:21;;;;;;;;;;;;;;;-145.18;100.00;46517.81;5073113;28;19923;-70
2022/08/11 07:42:47;;;;;;;;;;;;;;;-145.18;100.00;46531.47;5072889;28;19946;-71
2022/08/11 07:53:27;;;;;;;;;;;;;;;-145.18;100.00;46539.28;5072871;28;19924;-71
2022/08/11 07:55:54;;;;;;;;;;;;;;;-145.18;100.00;46521.72;5072929;28;19917;-70
2022/08/11 08:17:55;;;;;;;;;;;;;;;-145.18;100.00;46924.09;5072767;28;19923;-71
2022/08/11 08:20:23;;;;;;;;;;;;;;;-145.18;100.00;46939.72;5072172;28;19963;-71
2022/08/11 08:22:55;;;;;;;;;;;;;;;-145.18;100.00;46959.25;5072063;28;19929;-70
2022/08/11 08:25:22;;;;;;;;;;;;;;;-145.18;100.00;47096.00;5072016;28;20649;-71
2022/08/11 08:27:48;;;;;;;;;;;;;;;-145.18;100.00;47109.69;5071910;28;19935;-71
2022/08/11 08:32:59;;;;;;;;;;;;;;;-145.18;100.00;47060.84;5072256;28;20289;-71
2022/08/11 08:35:26;;;;;;;;;;;;;;;-145.18;100.00;47062.81;5071900;28;19983;-71
2022/08/11 08:37:52;;;;;;;;;;;;;;;-145.18;100.00;47029.59;5071512;28;19923;-71
2022/08/11 08:40:17;;;;;;;;;;;;;;;-145.18;100.00;47023.72;5071726;28;20007;-71
2022/08/11 08:42:54;;;;;;;;;;;;;;;-145.18;100.00;46992.47;5071832;28;19970;-71
2022/08/11 08:45:20;;;;;;;;;;;;;;;-145.18;100.00;46988.56;5071644;28;20435;-71
2022/08/11 08:47:55;;;;;;;;;;;;;;;-145.18;100.00;46990.53;5071642;28;19921;-71
2022/08/11 08:50:22;;;;;;;;;;;;;;;-145.18;100.00;46978.81;5071329;28;19917;-71
2022/08/11 08:52:52;;;;;;;;;;;;;;;-145.18;100.00;46961.22;5071668;28;20399;-71
2022/08/11 08:55:18;;;;;;;;;;;;;;;-145.18;100.00;46961.22;5071400;28;19948;-71
2022/08/11 08:57:45;;;;;;;;;;;;;;;-145.18;100.00;46957.31;5071448;28;20585;-71
2022/08/11 09:00:12;;;;;;;;;;;;;;;-145.18;100.00;46969.03;5070880;28;20343;-71
2022/08/11 09:02:38;;;;;;;;;;;;;;;-145.18;100.00;46959.25;5071323;28;19921;-71
2022/08/11 09:05:05;;;;;;;;;;;;;;;-145.18;100.00;46943.63;5070859;28;20073;-71
2022/08/11 09:07:30;;;;;;;;;;;;;;;-145.18;100.00;46939.72;5071401;28;19958;-71
2022/08/11 09:09:57;;;;;;;;;;;;;;;-145.18;100.00;46935.81;5071039;28;20019;-71
2022/08/11 09:12:25;;;;;;;;;;;;;;;-145.18;100.00;46943.63;5071188;28;19927;-71
2022/08/11 09:15:02;;;;;;;;;;;;;;;-145.18;100.00;46945.59;5070816;28;19917;-71
2022/08/11 09:17:28;;;;;;;;;;;;;;;-145.18;100.00;46949.50;5071226;28;19921;-71
2022/08/11 09:20:01;;;;;;;;;;;;;;;-145.18;100.00;46941.69;5070863;28;19921;-71
2022/08/11 09:27:55;;;;;;;;;;;;;;;-145.18;100.00;46928.00;5071417;28;19927;-71
2022/08/11 09:30:24;;;;;;;;;;;;;;;-145.18;100.00;46926.06;5070543;28;19924;-71
2022/08/11 09:32:50;;;;;;;;;;;;;;;-145.18;100.00;46926.06;5071068;28;20007;-71
2022/08/11 09:35:16;;;;;;;;;;;;;;;-145.18;100.00;46929.97;5069438;28;19994;-71
2022/08/11 09:40:29;;;;;;;;;;;;;;;-145.18;100.00;46920.19;5070991;28;19979;-70
2022/08/11 09:45:50;;;;;;;;;;;;;;;-145.18;100.00;46914.34;5071395;28;20567;-71
2022/08/11 09:48:17;;;;;;;;;;;;;;;-145.18;100.00;46902.63;5070567;28;20380;-71
2022/08/11 09:50:43;;;;;;;;;;;;;;;-145.18;100.00;46906.53;5070761;28;20299;-71
2022/08/11 09:53:11;;;;;;;;;;;;;;;-145.18;100.00;46906.53;5070407;28;20336;-71
2022/08/11 09:55:37;;;;;;;;;;;;;;;-145.18;100.00;46904.56;5070486;28;19920;-71
2022/08/11 09:58:12;;;;;;;;;;;;;;;-145.18;100.00;46894.81;5070753;28;19927;-71
2022/08/11 10:00:39;;;;;;;;;;;;;;;-145.18;100.00;46892.84;5070635;28;19966;-71
2022/08/11 10:03:10;;;;;;;;;;;;;;;-145.18;100.00;46887.00;5070429;28;19924;-71
2022/08/11 10:08:21;;;;;;;;;;;;;;;-145.18;100.00;46887.00;5070423;28;19938;-71
2022/08/11 10:10:48;;;;;;;;;;;;;;;-145.18;100.00;46896.75;5070888;28;19921;-71
2022/08/11 10:13:15;;;;;;;;;;;;;;;-145.18;100.00;46892.84;5070348;28;20378;-71
2022/08/11 10:15:44;;;;;;;;;;;;;;;-145.18;100.00;46885.03;5070658;28;19974;-72
2022/08/11 10:20:59;;;;;;;;;;;;;;;-145.18;100.00;46883.09;5071113;28;19967;-72
2022/08/11 10:28:53;;;;;;;;;;;;;;;-145.18;96.78;46887.00;5070379;28;19923;-71
2022/08/11 10:34:03;;;;;;;;;;;;;;;-145.18;92.82;46873.31;5070499;28;19934;-72
2022/08/11 10:36:49;;;;;;;;;;;;;;;-145.18;97.42;46877.22;5070240;28;19924;-71
2022/08/11 10:39:17;;;;;;;;;;;;;;;-145.18;92.87;46881.13;5069973;28;19939;-71
2022/08/11 10:44:30;;;;;;;;;;;;;;;-145.18;88.36;46869.41;5069893;28;19923;-71
2022/08/11 10:49:39;;;;;;;;;;;;;;;-145.18;83.44;46863.53;5070350;28;19932;-72
2022/08/11 11:00:17;;;;;;;;;;;;;;;-145.18;76.58;46859.63;5073574;28;19926;-72
2022/08/11 11:02:43;;;;;;;;;;;;;;;-145.18;77.96;46857.69;5073474;28;20015;-72
2022/08/11 11:05:14;;;;;;;;;;;;;;;-145.18;77.68;46845.97;5073111;28;19920;-72
2022/08/11 11:07:49;;;;;;;;;;;;;;;-145.18;73.19;46844.00;5073716;28;20407;-72
2022/08/11 11:10:14;;;;;;;;;;;;;;;-145.18;72.37;46853.78;5073234;28;19923;-72
2022/08/11 11:18:34;;;;;;;;;;;;;;;-145.18;67.68;46838.16;5073789;28;19927;-71
2022/08/11 11:20:59;;;;;;;;;;;;;;;-145.18;68.39;46842.06;5073702;28;19931;-72
2022/08/11 11:23:46;;;;;;;;;;;;;;;-145.18;67.15;46851.81;5073158;28;19920;-72
2022/08/11 11:26:20;;;;;;;;;;;;;;;-145.18;71.92;46836.19;5073304;28;20331;-72
2022/08/11 11:29:04;;;;;;;;;;;;;;;-145.18;67.47;46832.28;5072927;28;19921;-72
2022/08/11 11:31:35;;;;;;;;;;;;;;;-145.18;65.37;46836.19;5073332;28;19924;-72
2022/08/11 11:34:13;;;;;;;;;;;;;;;-145.18;66.61;46834.25;5073168;28;19920;-72
2022/08/11 11:36:39;;;;;;;;;;;;;;;-145.18;67.56;46824.47;5073270;28;20292;-72
2022/08/11 11:39:05;;;;;;;;;;;;;;;-145.18;64.86;46830.34;5072868;28;19923;-72
2022/08/11 11:41:30;;;;;;;;;;;;;;;-145.18;66.77;46836.19;5073018;28;19916;-71
2022/08/11 11:43:56;;;;;;;;;;;;;;;-145.18;66.24;46826.44;5072904;28;20188;-72
2022/08/11 11:46:26;;;;;;;;;;;;;;;-145.18;65.72;46838.16;5072909;28;19917;-72
2022/08/11 11:48:52;;;;;;;;;;;;;;;-145.18;64.36;46834.25;5072599;28;19916;-72
2022/08/11 11:51:19;;;;;;;;;;;;;;;-145.18;66.24;46820.56;5072756;28;20411;-72
2022/08/11 11:53:45;;;;;;;;;;;;;;;-145.18;65.03;46812.75;5088013;28;20381;-72
2022/08/11 11:56:11;;;;;;;;;;;;;;;-145.18;66.62;46812.75;5072687;28;19916;-72
2022/08/11 12:01:24;;;;;;;;;;;;;;;-145.18;62.44;46806.91;5072668;28;19962;-72
2022/08/11 12:03:50;;;;;;;;;;;;;;;-145.18;64.37;46816.66;5072204;28;19958;-72
2022/08/11 12:06:17;;;;;;;;;;;;;;;-145.18;65.98;46804.94;5072285;28;19921;-72
2022/08/11 12:08:43;;;;;;;;;;;;;;;-145.18;62.79;46810.81;5072145;28;20381;-72
2022/08/11 12:14:00;;;;;;;;;;;;;;;-145.18;65.46;46799.09;5052358;28;20014;-71
2022/08/11 12:16:26;;;;;;;;;;;;;;;-145.18;62.63;46801.03;5072148;28;19923;-72
2022/08/11 12:18:57;;;;;;;;;;;;;;;-145.18;61.70;46789.31;5071795;28;19924;-72
2022/08/11 12:21:22;;;;;;;;;;;;;;;-145.18;63.73;46797.13;5072114;28;19916;-72
2022/08/11 12:29:15;;;;;;;;;;;;;;;-145.18;59.46;46812.75;5071647;28;19916;-72
2022/08/11 12:31:41;;;;;;;;;;;;;;;-145.18;60.08;46810.81;5072022;28;19955;-73
2022/08/11 12:34:08;;;;;;;;;;;;;;;-145.18;61.96;46820.56;5071521;28;19925;-73
2022/08/11 12:36:40;;;;;;;;;;;;;;;-145.18;60.05;46816.66;5072098;28;19924;-73
2022/08/11 12:39:07;;;;;;;;;;;;;;;-145.18;63.74;46812.75;5071699;28;19966;-73
2022/08/11 12:47:03;;;;;;;;;;;;;;;-145.18;59.91;46803.00;5072115;28;19922;-73
2022/08/11 12:52:21;;;;;;;;;;;;;;;-145.18;58.62;46808.84;5071627;28;20296;-73
2022/08/11 12:54:56;;;;;;;;;;;;;;;-145.18;57.50;46804.94;5071184;28;20432;-73
2022/08/11 13:05:38;;;;;;;;;;;;;;;-145.18;59.27;46806.91;5071480;28;20400;-73
2022/08/11 13:08:05;;;;;;;;;;;;;;;-145.18;55.52;46812.75;5071635;28;19920;-72
2022/08/11 13:13:16;;;;;;;;;;;;;;;-145.18;56.53;46803.00;5071612;28;19924;-73
2022/08/11 13:15:42;;;;;;;;;;;;;;;-145.18;52.96;46801.03;5070955;28;19920;-73
2022/08/11 13:18:08;;;;;;;;;;;;;;;-145.18;55.43;46795.19;5070730;28;19920;-73
2022/08/11 13:20:34;;;;;;;;;;;;;;;-145.18;54.52;46793.22;5070512;28;19917;-73
2022/08/11 13:23:00;;;;;;;;;;;;;;;-145.18;54.29;46793.22;5071443;28;19921;-73
2022/08/11 13:25:26;;;;;;;;;;;;;;;-145.18;49.78;46806.91;5070687;28;19931;-73
2022/08/11 13:27:54;;;;;;;;;;;;;;;-145.18;52.72;46795.19;5071520;28;19917;-72
2022/08/11 13:33:06;;;;;;;;;;;;;;;-145.18;50.07;46804.94;5071296;28;20421;-73
2022/08/11 13:35:32;;;;;;;;;;;;;;;-145.18;52.69;46791.28;5070649;28;19995;-73
2022/08/11 13:38:03;;;;;;;;;;;;;;;-145.18;49.55;46791.28;5070532;28;20411;-73
2022/08/11 13:40:29;;;;;;;;;;;;;;;-145.18;50.86;46785.41;5070472;28;20377;-73
2022/08/11 13:42:57;;;;;;;;;;;;;;;-145.18;51.79;46793.22;5071007;28;19921;-72
2022/08/11 13:45:23;;;;;;;;;;;;;;;-145.18;48.23;46781.50;5070204;28;20296;-72
2022/08/11 13:47:50;;;;;;;;;;;;;;;-145.18;47.52;46781.50;5071132;28;19956;-74
2022/08/11 13:50:17;;;;;;;;;;;;;;;-145.18;44.58;46797.13;5070465;28;19916;-73
2022/08/11 13:52:43;;;;;;;;;;;;;;;-145.18;47.46;46783.47;5070831;28;20007;-74
2022/08/11 13:55:10;;;;;;;;;;;;;;;-145.18;46.80;46785.41;5070376;28;20299;-73
2022/08/11 13:57:36;;;;;;;;;;;;;;;-145.18;46.29;46803.00;5070409;28;19923;-72
2022/08/11 14:00:09;;;;;;;;;;;;;;;-145.18;45.83;46804.94;5070456;28;19947;-73
2022/08/11 14:02:37;;;;;;;;;;;;;;;-145.18;45.57;46793.22;5070351;28;19932;-73
2022/08/11 14:05:22;;;;;;;;;;;;;;;-145.18;47.16;46795.19;5070484;28;19928;-73
2022/08/11 14:07:48;;;;;;;;;;;;;;;-145.18;46.05;46797.13;5063410;28;19928;-74
2022/08/11 14:10:15;;;;;;;;;;;;;;;-145.18;43.12;46785.41;5070298;28;19916;-73
2022/08/11 14:15:25;;;;;;;;;;;;;;;-145.18;44.90;46781.50;5070295;28;20023;-73
2022/08/11 14:17:53;;;;;;;;;;;;;;;-145.18;46.18;46783.47;5070712;28;20011;-73
2022/08/11 14:20:19;;;;;;;;;;;;;;;-145.18;42.99;46773.69;5070054;28;20395;-73
2022/08/11 14:22:45;;;;;;;;;;;;;;;-145.18;49.66;46773.69;5070670;28;19925;-73
2022/08/11 14:25:13;;;;;;;;;;;;;;;-145.18;42.26;46783.47;5070220;28;19924;-72
2022/08/11 14:27:39;;;;;;;;;;;;;;;-145.18;45.13;46781.50;5070724;28;20296;-73
2022/08/11 14:30:53;;;;;;;;;;;;;;;-145.18;45.04;46781.50;5072618;28;19928;-73
2022/08/11 14:32:50;;;;;;;;;;;;;;;-145.18;43.41;46767.84;5074337;28;19920;-74
2022/08/11 14:35:15;;;;;;;;;;;;;;;-145.18;40.47;46765.88;5073856;28;19982;-73
2022/08/11 14:37:41;;;;;;;;;;;;;;;-145.18;38.64;46761.97;5074052;28;19924;-73
2022/08/11 14:47:03;;;;;;;;;;;;;;;-145.18;42.71;46771.75;5074017;28;19927;-73
2022/08/11 14:48:20;;;;;;;;;;;;;;;-145.18;46.96;46787.38;5074149;28;19926;-73
2022/08/11 14:50:46;;;;;;;;;;;;;;;-145.18;44.15;46781.50;5073489;28;19924;-73
2022/08/11 14:53:14;;;;;;;;;;;;;;;-145.18;43.59;46775.66;5073970;28;20003;-73
2022/08/11 14:58:26;;;;;;;;;;;;;;;-145.18;42.46;46781.50;5074041;28;19967;-73
2022/08/11 15:00:53;;;;;;;;;;;;;;;-145.18;42.36;46769.78;5073575;28;20415;-73
2022/08/11 15:03:19;;;;;;;;;;;;;;;-145.18;42.59;46769.78;5073205;28;19920;-73
2022/08/11 15:05:49;;;;;;;;;;;;;;;-145.18;41.15;46771.75;5073545;28;19924;-73
2022/08/11 15:08:15;;;;;;;;;;;;;;;-145.18;43.25;46777.59;5073898;28;20300;-73
2022/08/11 15:10:41;;;;;;;;;;;;;;;-145.18;40.85;46773.69;5073430;28;19928;-73
2022/08/11 15:13:06;;;;;;;;;;;;;;;-145.18;40.95;46769.78;5073846;28;19924;-73
2022/08/11 15:18:17;;;;;;;;;;;;;;;-145.18;37.16;46767.84;5073846;28;19927;-73
2022/08/11 15:26:11;;;;;;;;;;;;;;;-145.18;36.40;46726.81;5073044;28;19924;-73
2022/08/11 15:45:46;;;;;;;;;;;;;;;-145.18;32.43;46689.69;5073011;28;19928;-73
2022/08/11 15:48:13;;;;;;;;;;;;;;;-145.18;32.06;46681.88;5069959;28;20016;-73
2022/08/11 15:50:39;;;;;;;;;;;;;;;-145.18;31.60;46679.94;5072176;28;19923;-73
2022/08/11 15:53:10;;;;;;;;;;;;;;;-145.18;31.21;46654.53;5072977;28;19923;-73
2022/08/11 15:55:36;;;;;;;;;;;;;;;-145.18;30.65;46662.34;5072338;28;19955;-73
2022/08/11 16:06:21;;;;;;;;;;;;;;;-145.18;28.52;46664.31;5072381;28;19932;-73
2022/08/11 16:08:47;;;;;;;;;;;;;;;-145.18;28.67;46650.63;5072517;28;19924;-73
2022/08/11 16:11:12;;;;;;;;;;;;;;;-145.18;28.78;46674.06;5072213;28;20395;-73
2022/08/11 16:16:15;;;;;;;;;;;;;;;-145.18;29.42;46672.13;5072072;28;19924;-74
2022/08/11 16:18:55;;;;;;;;;;;;;;;-145.18;29.45;46689.69;5070987;28;19927;-73
2022/08/11 16:21:25;;;;;;;;;;;;;;;-145.18;30.90;46683.84;5071746;28;20385;-73
2022/08/11 16:23:52;;;;;;;;;;;;;;;-145.18;30.77;46687.75;5072191;28;19916;-73
2022/08/11 16:26:21;;;;;;;;;;;;;;;-145.18;29.23;46683.84;5072026;28;19916;-73
2022/08/11 16:28:48;;;;;;;;;;;;;;;-145.18;30.20;46695.56;5071998;28;19966;-73
2022/08/11 16:31:14;;;;;;;;;;;;;;;-145.18;29.18;46676.03;5071761;28;19916;-73
2022/08/11 16:33:40;;;;;;;;;;;;;;;-145.18;28.66;46676.03;5071846;28;19931;-73
2022/08/11 16:38:55;;;;;;;;;;;;;;;-145.18;31.87;46752.19;5060659;28;20372;-72
2022/08/11 16:49:24;;;;;;;;;;;;;;;-145.18;45.42;46834.25;5071625;28;20338;-72
2022/08/11 16:51:50;;;;;;;;;;;;;;;-145.18;46.71;46845.97;5071240;28;19921;-72
2022/08/11 16:54:15;;;;;;;;;;;;;;;-145.18;48.98;46840.09;5071101;28;19916;-72
2022/08/11 16:56:46;;;;;;;;;;;;;;;-145.18;48.34;46861.59;5070770;28;20395;-71
2022/08/11 16:59:15;;;;;;;;;;;;;;;-145.18;49.78;46857.69;5071792;28;19923;-71
2022/08/11 17:01:51;;;;;;;;;;;;;;;-145.18;48.80;46857.69;5070458;28;19912;-70
2022/08/11 17:18:38;;;;;;;;;;;;;;;-145.18;54.73;46877.22;5071842;28;19928;-71
2022/08/11 17:21:02;;;;;;;;;;;;;;;-145.18;56.37;46879.19;5070743;28;20050;-71
2022/08/11 17:26:25;;;;;;;;;;;;;;;-145.18;54.96;46861.59;5070838;28;19963;-71
2022/08/11 17:28:55;;;;;;;;;;;;;;;-145.18;54.50;46873.31;5071128;28;20015;-71
2022/08/11 17:36:52;;;;;;;;;;;;;;;-145.18;58.61;46877.22;5070694;28;19923;-72
2022/08/11 17:39:17;;;;;;;;;;;;;;;-145.18;59.66;46885.03;5070915;28;19920;-71
2022/08/11 17:49:56;;;;;;;;;;;;;;;-145.18;62.87;46885.03;5071052;28;19926;-71
2022/08/11 18:00:36;;;;;;;;;;;;;;;-145.18;63.63;46883.09;5070507;28;19928;-72
2022/08/11 18:05:48;;;;;;;;;;;;;;;-145.18;65.53;46885.03;5074180;28;19923;-71
